createdAt,value
2014-07-13T00:00:12.221Z,100492
2014-07-13T00:00:30.705Z,100492
2014-07-13T00:00:48.424Z,100489
2014-07-13T00:01:06.596Z,100486
2014-07-13T00:01:24.239Z,100495
2014-07-13T00:01:41.832Z,100489
2014-07-13T00:02:00.098Z,100495
2014-07-13T00:02:18.334Z,100492
2014-07-13T00:02:35.928Z,100495
2014-07-13T00:02:54.194Z,100492
2014-07-13T00:03:11.209Z,100495
2014-07-13T00:03:28.821Z,100492
2014-07-13T00:03:47.055Z,100489
2014-07-13T00:04:04.649Z,100500
2014-07-13T00:04:22.384Z,100489
2014-07-13T00:04:40.619Z,100500
2014-07-13T00:04:58.212Z,100495
2014-07-13T00:05:15.806Z,100480
2014-07-13T00:05:32.918Z,100492
2014-07-13T00:05:51.153Z,100495
2014-07-13T00:06:08.122Z,100495
2014-07-13T00:06:26.419Z,100497
2014-07-13T00:06:44.669Z,100495
2014-07-13T00:07:02.404Z,100480
2014-07-13T00:07:19.419Z,100486
2014-07-13T00:07:37.032Z,100486
2014-07-13T00:07:54.626Z,100483
2014-07-13T00:08:12.235Z,100486
2014-07-13T00:08:29.877Z,100489
2014-07-13T00:08:48.173Z,100489
2014-07-13T00:09:05.814Z,100486
2014-07-13T00:09:22.783Z,100486
2014-07-13T00:09:41.019Z,100495
2014-07-13T00:09:59.238Z,100489
2014-07-13T00:10:17.707Z,100495
2014-07-13T00:10:34.677Z,100489
2014-07-13T00:10:51.662Z,100489
2014-07-13T00:11:09.256Z,100495
2014-07-13T00:11:26.849Z,100486
2014-07-13T00:11:45.086Z,100486
2014-07-13T00:12:03.320Z,100489
2014-07-13T00:12:20.914Z,100497
2014-07-13T00:12:38.510Z,100495
2014-07-13T00:12:55.478Z,100497
2014-07-13T00:13:13.088Z,100489
2014-07-13T00:13:30.681Z,100492
2014-07-13T00:13:48.919Z,100489
2014-07-13T00:14:07.138Z,100500
2014-07-13T00:14:25.372Z,100500
2014-07-13T00:14:43.060Z,100489
2014-07-13T00:15:01.279Z,100495
2014-07-13T00:15:19.514Z,100492
2014-07-13T00:15:37.107Z,100495
2014-07-13T00:15:55.548Z,100495
2014-07-13T00:16:13.813Z,100489
2014-07-13T00:16:32.048Z,100497
2014-07-13T00:16:49.721Z,100500
2014-07-13T00:17:07.314Z,100495
2014-07-13T00:17:24.908Z,100506
2014-07-13T00:17:41.893Z,100497
2014-07-13T00:17:59.489Z,100500
2014-07-13T00:18:17.724Z,100500
2014-07-13T00:18:34.692Z,100500
2014-07-13T00:18:52.927Z,100503
2014-07-13T00:19:09.898Z,100500
2014-07-13T00:19:28.132Z,100494
2014-07-13T00:19:46.366Z,100509
2014-07-13T00:20:04.009Z,100503
2014-07-13T00:20:21.603Z,100503
2014-07-13T00:20:39.243Z,100497
2014-07-13T00:20:57.509Z,100503
2014-07-13T00:21:15.744Z,100512
2014-07-13T00:21:33.385Z,100500
2014-07-13T00:21:50.979Z,100500
2014-07-13T00:22:08.074Z,100503
2014-07-13T00:22:26.278Z,100503
2014-07-13T00:22:43.293Z,100509
2014-07-13T00:23:00.262Z,100509
2014-07-13T00:23:17.874Z,100500
2014-07-13T00:23:36.093Z,100506
2014-07-13T00:23:53.702Z,100509
2014-07-13T00:24:11.937Z,100506
2014-07-13T00:24:30.267Z,100518
2014-07-13T00:24:48.454Z,100506
2014-07-13T00:25:05.454Z,100509
2014-07-13T00:25:23.691Z,100512
2014-07-13T00:25:41.285Z,100518
2014-07-13T00:25:59.519Z,100509
2014-07-13T00:26:16.535Z,100512
2014-07-13T00:26:34.146Z,100503
2014-07-13T00:26:52.396Z,100512
2014-07-13T00:27:10.677Z,100497
2014-07-13T00:27:28.304Z,100515
2014-07-13T00:27:46.539Z,100518
2014-07-13T00:28:03.648Z,100509
2014-07-13T00:28:20.648Z,100512
2014-07-13T00:28:37.634Z,100500
2014-07-13T00:28:55.853Z,100509
2014-07-13T00:29:14.087Z,100500
2014-07-13T00:29:32.322Z,100512
2014-07-13T00:29:50.543Z,100509
2014-07-13T00:30:08.214Z,100500
2014-07-13T00:30:25.183Z,100509
2014-07-13T00:30:43.405Z,100506
2014-07-13T00:31:01.030Z,100509
2014-07-13T00:31:19.249Z,100506
2014-07-13T00:31:37.483Z,100506
2014-07-13T00:31:55.125Z,100506
2014-07-13T00:32:12.812Z,100512
2014-07-13T00:32:31.000Z,100503
2014-07-13T00:32:49.236Z,100500
2014-07-13T00:33:07.470Z,100509
2014-07-13T00:33:25.689Z,100506
2014-07-13T00:34:13.552Z,100497
2014-07-13T00:34:31.239Z,100503
2014-07-13T00:34:49.520Z,100506
2014-07-13T00:35:06.536Z,100506
2014-07-13T00:35:24.179Z,100506
2014-07-13T00:35:41.913Z,100509
2014-07-13T00:36:00.147Z,100506
2014-07-13T00:36:18.366Z,100509
2014-07-13T00:36:34.727Z,100509
2014-07-13T00:36:52.462Z,100503
2014-07-13T00:37:10.681Z,100509
2014-07-13T00:37:27.667Z,100512
2014-07-13T00:37:45.901Z,100506
2014-07-13T00:38:04.136Z,100509
2014-07-13T00:38:21.854Z,100503
2014-07-13T00:38:38.841Z,100506
2014-07-13T00:38:56.435Z,100506
2014-07-13T00:39:13.419Z,100506
2014-07-13T00:39:31.015Z,100500
2014-07-13T00:39:48.608Z,100509
2014-07-13T00:40:06.218Z,100506
2014-07-13T00:40:23.827Z,100509
2014-07-13T00:40:41.424Z,100497
2014-07-13T00:40:59.643Z,100503
2014-07-13T00:41:17.252Z,100515
2014-07-13T00:41:34.846Z,100509
2014-07-13T00:41:53.081Z,100503
2014-07-13T00:42:10.675Z,100512
2014-07-13T00:42:28.909Z,100503
2014-07-13T00:42:47.130Z,100497
2014-07-13T00:43:04.739Z,100506
2014-07-13T00:43:22.474Z,100503
2014-07-13T00:43:40.083Z,100500
2014-07-13T00:43:57.055Z,100500
2014-07-13T00:44:14.664Z,100497
2014-07-13T00:44:32.274Z,100503
2014-07-13T00:44:49.867Z,100503
2014-07-13T00:45:07.462Z,100492
2014-07-13T00:45:25.072Z,100506
2014-07-13T00:45:42.040Z,100503
2014-07-13T00:45:59.652Z,100500
2014-07-13T00:46:16.620Z,100497
2014-07-13T00:46:33.589Z,100495
2014-07-13T00:46:51.808Z,100506
2014-07-13T00:47:10.044Z,100492
2014-07-13T00:47:27.638Z,100497
2014-07-13T00:47:45.247Z,100512
2014-07-13T00:48:03.484Z,100500
2014-07-13T00:48:20.453Z,100500
2014-07-13T00:48:38.671Z,100503
2014-07-13T00:48:56.265Z,100503
2014-07-13T00:49:13.876Z,100506
2014-07-13T00:49:30.845Z,100495
2014-07-13T00:49:48.439Z,100500
2014-07-13T00:50:06.676Z,100500
2014-07-13T00:50:24.895Z,100495
2014-07-13T00:50:42.489Z,100497
2014-07-13T00:50:59.473Z,100500
2014-07-13T00:51:17.069Z,100503
2014-07-13T00:51:35.288Z,100495
2014-07-13T00:51:52.897Z,100495
2014-07-13T00:52:09.868Z,100500
2014-07-13T00:52:28.102Z,100495
2014-07-13T00:52:45.071Z,100497
2014-07-13T00:53:02.680Z,100492
2014-07-13T00:53:20.901Z,100495
2014-07-13T00:53:38.510Z,100495
2014-07-13T00:53:56.729Z,100500
2014-07-13T00:54:14.325Z,100500
2014-07-13T00:54:31.294Z,100492
2014-07-13T00:54:48.262Z,100497
2014-07-13T00:55:05.872Z,100495
2014-07-13T00:55:23.468Z,100495
2014-07-13T00:55:41.686Z,100497
2014-07-13T00:55:59.296Z,100486
2014-07-13T00:56:17.514Z,100497
2014-07-13T00:56:35.750Z,100486
2014-07-13T00:56:53.969Z,100495
2014-07-13T00:57:11.578Z,100492
2014-07-13T00:57:29.314Z,100500
2014-07-13T00:57:47.549Z,100494
2014-07-13T00:58:04.517Z,100500
2014-07-13T00:58:21.486Z,100495
2014-07-13T00:58:39.708Z,100500
2014-07-13T00:58:57.942Z,100495
2014-07-13T00:59:15.536Z,100500
2014-07-13T00:59:33.130Z,100500
2014-07-13T00:59:50.740Z,100497
2014-07-13T01:00:08.334Z,100497
2014-07-13T01:00:25.943Z,100489
2014-07-13T01:00:43.539Z,100497
2014-07-13T01:01:01.133Z,100492
2014-07-13T01:01:19.367Z,100500
2014-07-13T01:01:36.961Z,100495
2014-07-13T01:01:54.572Z,100509
2014-07-13T01:02:12.166Z,100506
2014-07-13T01:02:29.900Z,100500
2014-07-13T01:02:48.121Z,100500
2014-07-13T01:03:05.731Z,100497
2014-07-13T01:03:23.324Z,100492
2014-07-13T01:03:40.934Z,100495
2014-07-13T01:03:57.280Z,100503
2014-07-13T01:04:15.499Z,100500
2014-07-13T01:04:33.859Z,100503
2014-07-13T01:04:51.470Z,100495
2014-07-13T01:05:09.064Z,100497
2014-07-13T01:05:27.298Z,100500
2014-07-13T01:05:45.517Z,100497
2014-07-13T01:06:02.628Z,100495
2014-07-13T01:06:20.222Z,100489
2014-07-13T01:06:38.456Z,100492
2014-07-13T01:06:56.693Z,100500
2014-07-13T01:07:14.911Z,100492
2014-07-13T01:07:33.146Z,100495
2014-07-13T01:07:50.741Z,100500
2014-07-13T01:08:08.334Z,100492
2014-07-13T01:08:25.319Z,100492
2014-07-13T01:08:43.537Z,100500
2014-07-13T01:09:01.775Z,100497
2014-07-13T01:09:19.369Z,100495
2014-07-13T01:09:37.603Z,100495
2014-07-13T01:09:55.823Z,100500
2014-07-13T01:10:14.057Z,100497
2014-07-13T01:10:32.276Z,100500
2014-07-13T01:10:49.885Z,100495
2014-07-13T01:11:08.247Z,100497
2014-07-13T01:11:25.840Z,100500
2014-07-13T01:11:42.825Z,100500
2014-07-13T01:12:01.045Z,100500
2014-07-13T01:12:18.655Z,100497
2014-07-13T01:12:37.014Z,100492
2014-07-13T01:12:55.236Z,100506
2014-07-13T01:13:12.986Z,100506
2014-07-13T01:13:31.205Z,100509
2014-07-13T01:13:48.814Z,100500
2014-07-13T01:14:07.034Z,100497
2014-07-13T01:14:24.643Z,100506
2014-07-13T01:14:42.253Z,100509
2014-07-13T01:15:00.473Z,100506
2014-07-13T01:15:18.708Z,100497
2014-07-13T01:15:36.301Z,100497
2014-07-13T01:15:53.286Z,100495
2014-07-13T01:16:11.522Z,100503
2014-07-13T01:16:29.741Z,100495
2014-07-13T01:16:47.350Z,100495
2014-07-13T01:17:04.321Z,100503
2014-07-13T01:17:21.915Z,100500
2014-07-13T01:17:40.149Z,100497
2014-07-13T01:17:57.118Z,100500
2014-07-13T01:18:14.729Z,100489
2014-07-13T01:18:32.948Z,100492
2014-07-13T01:18:51.182Z,100500
2014-07-13T01:19:08.153Z,100492
2014-07-13T01:19:25.747Z,100494
2014-07-13T01:19:43.981Z,100497
2014-07-13T01:20:01.591Z,100495
2014-07-13T01:20:19.186Z,100495
2014-07-13T01:20:36.780Z,100492
2014-07-13T01:20:55.015Z,100495
2014-07-13T01:21:12.610Z,100489
2014-07-13T01:21:30.845Z,100495
2014-07-13T01:21:48.438Z,100495
2014-07-13T01:22:06.673Z,100489
2014-07-13T01:22:24.269Z,100495
2014-07-13T01:22:41.862Z,100489
2014-07-13T01:22:58.847Z,100486
2014-07-13T01:23:16.442Z,100483
2014-07-13T01:23:33.411Z,100486
2014-07-13T01:23:51.021Z,100492
2014-07-13T01:24:09.239Z,100489
2014-07-13T01:24:27.476Z,100492
2014-07-13T01:24:44.444Z,100492
2014-07-13T01:25:02.054Z,100489
2014-07-13T01:25:20.290Z,100492
2014-07-13T01:25:38.509Z,100483
2014-07-13T01:25:56.118Z,100489
2014-07-13T01:26:14.353Z,100495
2014-07-13T01:26:32.573Z,100492
2014-07-13T01:26:50.183Z,100489
2014-07-13T01:27:07.777Z,100489
2014-07-13T01:27:24.747Z,100494
2014-07-13T01:27:41.732Z,100489
2014-07-13T01:27:59.325Z,100489
2014-07-13T01:28:17.560Z,100492
2014-07-13T01:28:35.781Z,100486
2014-07-13T01:28:53.390Z,100489
2014-07-13T01:29:11.671Z,100486
2014-07-13T01:29:29.220Z,100489
2014-07-13T01:29:47.579Z,100489
2014-07-13T01:30:05.814Z,100492
2014-07-13T01:30:24.048Z,100483
2014-07-13T01:30:42.269Z,100480
2014-07-13T01:30:59.878Z,100475
2014-07-13T01:31:18.097Z,100483
2014-07-13T01:31:36.333Z,100483
2014-07-13T01:31:53.302Z,100477
2014-07-13T01:32:10.912Z,100472
2014-07-13T01:32:29.146Z,100477
2014-07-13T01:32:47.382Z,100475
2014-07-13T01:33:05.601Z,100475
2014-07-13T01:33:23.210Z,100483
2014-07-13T01:33:40.806Z,100475
2014-07-13T01:33:58.541Z,100475
2014-07-13T01:34:16.134Z,100472
2014-07-13T01:34:34.371Z,100477
2014-07-13T01:34:52.605Z,100470
2014-07-13T01:35:10.824Z,100472
2014-07-13T01:35:28.433Z,100475
2014-07-13T01:35:45.403Z,100480
2014-07-13T01:36:02.997Z,100469
2014-07-13T01:36:20.606Z,100475
2014-07-13T01:36:38.217Z,100472
2014-07-13T01:36:55.811Z,100477
2014-07-13T01:37:14.046Z,100483
2014-07-13T01:37:31.639Z,100469
2014-07-13T01:37:49.877Z,100475
2014-07-13T01:38:08.095Z,100475
2014-07-13T01:38:25.080Z,100472
2014-07-13T01:38:43.300Z,100480
2014-07-13T01:39:00.909Z,100480
2014-07-13T01:39:18.503Z,100483
2014-07-13T01:39:36.739Z,100483
2014-07-13T01:39:54.333Z,100480
2014-07-13T01:40:11.442Z,100477
2014-07-13T01:40:28.427Z,100477
2014-07-13T01:40:46.022Z,100475
2014-07-13T01:41:03.632Z,100483
2014-07-13T01:41:21.225Z,100483
2014-07-13T01:41:39.462Z,100472
2014-07-13T01:41:57.056Z,100477
2014-07-13T01:42:15.290Z,100480
2014-07-13T01:42:32.886Z,100477
2014-07-13T01:42:51.120Z,100477
2014-07-13T01:43:09.354Z,100480
2014-07-13T01:43:27.573Z,100486
2014-07-13T01:43:45.810Z,100483
2014-07-13T01:44:03.403Z,100480
2014-07-13T01:44:20.997Z,100480
2014-07-13T01:44:38.733Z,100477
2014-07-13T01:44:56.968Z,100477
2014-07-13T01:45:15.202Z,100469
2014-07-13T01:45:33.439Z,100477
2014-07-13T01:45:51.173Z,100480
2014-07-13T01:46:08.142Z,100477
2014-07-13T01:46:25.735Z,100477
2014-07-13T01:46:43.971Z,100469
2014-07-13T01:47:02.205Z,100477
2014-07-13T01:47:19.815Z,100472
2014-07-13T01:47:37.426Z,100480
2014-07-13T01:47:55.645Z,100480
2014-07-13T01:48:13.254Z,100466
2014-07-13T01:48:30.848Z,100472
2014-07-13T01:48:49.085Z,100472
2014-07-13T01:49:07.304Z,100472
2014-07-13T01:49:24.913Z,100472
2014-07-13T01:49:43.150Z,100475
2014-07-13T01:50:00.743Z,100475
2014-07-13T01:50:18.337Z,100466
2014-07-13T01:50:34.683Z,100469
2014-07-13T01:50:52.917Z,100469
2014-07-13T01:51:11.152Z,100466
2014-07-13T01:51:28.745Z,100466
2014-07-13T01:51:46.356Z,100469
2014-07-13T01:52:03.950Z,100469
2014-07-13T01:52:22.184Z,100475
2014-07-13T01:52:39.780Z,100464
2014-07-13T01:52:56.748Z,100469
2014-07-13T01:53:14.358Z,100475
2014-07-13T01:53:31.952Z,100472
2014-07-13T01:53:50.188Z,100475
2014-07-13T01:54:07.157Z,100469
2014-07-13T01:54:24.750Z,100472
2014-07-13T01:54:41.737Z,100466
2014-07-13T01:54:59.956Z,100475
2014-07-13T01:55:18.331Z,100472
2014-07-13T01:55:36.551Z,100469
2014-07-13T01:55:54.161Z,100469
2014-07-13T01:56:12.379Z,100472
2014-07-13T01:56:29.973Z,100469
2014-07-13T01:56:48.210Z,100458
2014-07-13T01:57:05.803Z,100461
2014-07-13T01:57:24.038Z,100464
2014-07-13T01:57:40.383Z,100464
2014-07-13T01:57:57.977Z,100458
2014-07-13T01:58:15.571Z,100461
2014-07-13T01:58:33.182Z,100466
2014-07-13T01:58:51.401Z,100461
2014-07-13T01:59:09.635Z,100464
2014-07-13T01:59:27.870Z,100461
2014-07-13T01:59:45.466Z,100466
2014-07-13T02:00:03.059Z,100461
2014-07-13T02:00:21.294Z,100452
2014-07-13T02:00:39.530Z,100458
2014-07-13T02:00:57.124Z,100466
2014-07-13T02:01:14.733Z,100461
2014-07-13T02:01:32.954Z,100452
2014-07-13T02:01:49.923Z,100452
2014-07-13T02:02:07.532Z,100449
2014-07-13T02:02:25.891Z,100455
2014-07-13T02:02:43.486Z,100449
2014-07-13T02:03:01.721Z,100455
2014-07-13T02:03:19.314Z,100446
2014-07-13T02:03:36.910Z,100449
2014-07-13T02:03:54.519Z,100446
2014-07-13T02:04:12.738Z,100452
2014-07-13T02:04:30.348Z,100441
2014-07-13T02:04:48.568Z,100452
2014-07-13T02:05:06.178Z,100449
2014-07-13T02:05:23.787Z,100443
2014-07-13T02:05:42.008Z,100455
2014-07-13T02:06:00.242Z,100443
2014-07-13T02:06:18.477Z,100446
2014-07-13T02:06:36.697Z,100443
2014-07-13T02:06:54.932Z,100443
2014-07-13T02:07:12.525Z,100443
2014-07-13T02:07:30.760Z,100438
2014-07-13T02:07:48.356Z,100449
2014-07-13T02:08:05.949Z,100440
2014-07-13T02:08:23.543Z,100449
2014-07-13T02:08:41.779Z,100446
2014-07-13T02:09:00.014Z,100438
2014-07-13T02:09:16.983Z,100438
2014-07-13T02:09:33.328Z,100443
2014-07-13T02:09:50.297Z,100443
2014-07-13T02:10:07.891Z,100435
2014-07-13T02:10:25.500Z,100446
2014-07-13T02:10:43.737Z,100443
2014-07-13T02:11:00.705Z,100435
2014-07-13T02:11:18.924Z,100443
2014-07-13T02:11:35.910Z,100443
2014-07-13T02:11:53.645Z,100438
2014-07-13T02:12:11.239Z,100429
2014-07-13T02:12:28.848Z,100440
2014-07-13T02:12:47.069Z,100438
2014-07-13T02:13:05.303Z,100443
2014-07-13T02:13:22.897Z,100432
2014-07-13T02:13:41.133Z,100438
2014-07-13T02:13:58.868Z,100435
2014-07-13T02:14:16.461Z,100443
2014-07-13T02:14:34.057Z,100435
2014-07-13T02:14:51.791Z,100435
2014-07-13T02:15:10.026Z,100438
2014-07-13T02:15:26.995Z,100443
2014-07-13T02:15:45.230Z,100438
2014-07-13T02:16:02.824Z,100432
2014-07-13T02:16:21.058Z,100440
2014-07-13T02:16:38.654Z,100440
2014-07-13T02:16:55.013Z,100435
2014-07-13T02:17:11.982Z,100440
2014-07-13T02:17:30.201Z,100435
2014-07-13T02:17:47.813Z,100440
2014-07-13T02:18:05.407Z,100438
2014-07-13T02:18:23.641Z,100446
2014-07-13T02:18:41.237Z,100443
2014-07-13T02:18:58.831Z,100440
2014-07-13T02:19:17.065Z,100443
2014-07-13T02:19:34.660Z,100435
2014-07-13T02:19:52.269Z,100443
2014-07-13T02:20:09.238Z,100440
2014-07-13T02:20:27.472Z,100438
2014-07-13T02:20:45.068Z,100435
2014-07-13T02:21:03.287Z,100432
2014-07-13T02:21:20.271Z,100432
2014-07-13T02:21:38.633Z,100426
2014-07-13T02:21:56.851Z,100440
2014-07-13T02:22:14.461Z,100435
2014-07-13T02:22:32.679Z,100429
2014-07-13T02:22:50.291Z,100435
2014-07-13T02:23:08.525Z,100429
2014-07-13T02:23:26.135Z,100435
2014-07-13T02:23:44.371Z,100440
2014-07-13T02:24:02.590Z,100429
2014-07-13T02:24:20.824Z,100435
2014-07-13T02:24:38.420Z,100435
2014-07-13T02:24:55.389Z,100432
2014-07-13T02:25:13.623Z,100429
2014-07-13T02:25:31.217Z,100438
2014-07-13T02:25:48.827Z,100432
2014-07-13T02:26:07.046Z,100435
2014-07-13T02:26:25.280Z,100435
2014-07-13T02:26:42.877Z,100429
2014-07-13T02:27:01.111Z,100432
2014-07-13T02:27:18.705Z,100426
2014-07-13T02:27:36.926Z,100432
2014-07-13T02:27:54.535Z,100429
2014-07-13T02:28:12.754Z,100432
2014-07-13T02:28:30.363Z,100429
2014-07-13T02:28:48.599Z,100426
2014-07-13T02:29:06.817Z,100429
2014-07-13T02:29:25.052Z,100429
2014-07-13T02:29:43.273Z,100429
2014-07-13T02:30:01.507Z,100429
2014-07-13T02:30:19.741Z,100435
2014-07-13T02:30:37.338Z,100435
2014-07-13T02:30:54.307Z,100432
2014-07-13T02:31:12.541Z,100435
2014-07-13T02:31:30.776Z,100429
2014-07-13T02:31:47.746Z,100435
2014-07-13T02:32:04.715Z,100435
2014-07-13T02:32:22.449Z,100435
2014-07-13T02:32:40.061Z,100440
2014-07-13T02:32:57.030Z,100429
2014-07-13T02:33:15.264Z,100423
2014-07-13T02:33:33.484Z,100429
2014-07-13T02:33:51.077Z,100423
2014-07-13T02:34:08.812Z,100429
2014-07-13T02:34:26.421Z,100435
2014-07-13T02:34:44.017Z,100429
2014-07-13T02:35:01.611Z,100429
2014-07-13T02:35:19.845Z,100432
2014-07-13T02:35:37.441Z,100432
2014-07-13T02:35:54.425Z,100435
2014-07-13T02:36:12.019Z,100437
2014-07-13T02:36:30.238Z,100435
2014-07-13T02:36:48.473Z,100446
2014-07-13T02:37:06.692Z,100437
2014-07-13T02:37:24.301Z,100423
2014-07-13T02:37:42.664Z,100429
2014-07-13T02:38:00.898Z,100438
2014-07-13T02:38:17.867Z,100423
2014-07-13T02:38:35.476Z,100432
2014-07-13T02:38:53.697Z,100429
2014-07-13T02:39:11.931Z,100432
2014-07-13T02:39:29.525Z,100426
2014-07-13T02:39:47.136Z,100429
2014-07-13T02:40:04.730Z,100423
2014-07-13T02:40:22.339Z,100417
2014-07-13T02:40:39.935Z,100435
2014-07-13T02:40:58.170Z,100429
2014-07-13T02:41:16.404Z,100426
2014-07-13T02:41:33.388Z,100423
2014-07-13T02:41:50.359Z,100423
2014-07-13T02:42:08.593Z,100429
2014-07-13T02:42:26.812Z,100437
2014-07-13T02:42:45.048Z,100426
2014-07-13T02:43:03.407Z,100429
2014-07-13T02:43:21.641Z,100432
2014-07-13T02:43:39.862Z,100423
2014-07-13T02:43:57.456Z,100432
2014-07-13T02:44:15.065Z,100432
2014-07-13T02:44:33.300Z,100420
2014-07-13T02:44:51.537Z,100426
2014-07-13T02:45:09.756Z,100426
2014-07-13T02:45:27.990Z,100437
2014-07-13T02:45:46.224Z,100435
2014-07-13T02:46:04.445Z,100426
2014-07-13T02:46:22.680Z,100435
2014-07-13T02:46:40.914Z,100423
2014-07-13T02:46:58.510Z,100432
2014-07-13T02:47:16.119Z,100423
2014-07-13T02:47:33.088Z,100426
2014-07-13T02:47:51.324Z,100432
2014-07-13T02:48:09.559Z,100432
2014-07-13T02:48:27.793Z,100423
2014-07-13T02:48:46.012Z,100437
2014-07-13T02:49:03.622Z,100423
2014-07-13T02:49:21.216Z,100423
2014-07-13T02:49:38.185Z,100423
2014-07-13T02:49:56.421Z,100420
2014-07-13T02:50:14.640Z,100429
2014-07-13T02:50:32.874Z,100426
2014-07-13T02:50:51.095Z,100432
2014-07-13T02:51:08.689Z,100432
2014-07-13T02:51:26.423Z,100432
2014-07-13T02:51:44.032Z,100426
2014-07-13T02:52:01.628Z,100429
2014-07-13T02:52:19.862Z,100432
2014-07-13T02:52:38.097Z,100423
2014-07-13T02:52:55.833Z,100423
2014-07-13T02:53:14.052Z,100423
2014-07-13T02:53:31.661Z,100426
2014-07-13T02:53:49.882Z,100420
2014-07-13T02:54:06.866Z,100432
2014-07-13T02:54:25.085Z,100426
2014-07-13T02:54:42.054Z,100417
2014-07-13T02:55:00.290Z,100426
2014-07-13T02:55:17.900Z,100429
2014-07-13T02:55:36.134Z,100423
2014-07-13T02:55:53.729Z,100426
2014-07-13T02:56:11.963Z,100429
2014-07-13T02:56:30.182Z,100420
2014-07-13T02:56:48.419Z,100423
2014-07-13T02:57:06.029Z,100423
2014-07-13T02:57:24.263Z,100420
2014-07-13T02:57:41.857Z,100420
2014-07-13T02:57:59.452Z,100411
2014-07-13T02:58:17.186Z,100423
2014-07-13T02:58:34.795Z,100429
2014-07-13T02:58:53.033Z,100417
2014-07-13T02:59:11.251Z,100417
2014-07-13T02:59:29.486Z,100420
2014-07-13T02:59:47.080Z,100414
2014-07-13T03:00:04.691Z,100420
2014-07-13T03:00:22.925Z,100429
2014-07-13T03:00:40.519Z,100420
2014-07-13T03:00:58.114Z,100414
2014-07-13T03:01:15.083Z,100429
2014-07-13T03:01:32.692Z,100426
2014-07-13T03:01:50.928Z,100417
2014-07-13T03:02:08.522Z,100423
2014-07-13T03:02:26.756Z,100420
2014-07-13T03:02:44.366Z,100414
2014-07-13T03:03:01.963Z,100423
2014-07-13T03:03:20.197Z,100420
2014-07-13T03:03:37.806Z,100420
2014-07-13T03:03:55.417Z,100406
2014-07-13T03:04:13.651Z,100414
2014-07-13T03:04:31.885Z,100414
2014-07-13T03:04:50.120Z,100411
2014-07-13T03:05:07.732Z,100406
2014-07-13T03:05:25.326Z,100411
2014-07-13T03:05:43.560Z,100414
2014-07-13T03:06:01.171Z,100417
2014-07-13T03:06:18.139Z,100414
2014-07-13T03:06:35.749Z,100423
2014-07-13T03:06:53.983Z,100420
2014-07-13T03:07:12.220Z,100414
2014-07-13T03:07:30.454Z,100417
2014-07-13T03:07:48.688Z,100409
2014-07-13T03:08:06.301Z,100414
2014-07-13T03:08:23.910Z,100411
2014-07-13T03:08:42.129Z,100420
2014-07-13T03:08:59.113Z,100426
2014-07-13T03:09:16.100Z,100409
2014-07-13T03:09:34.334Z,100414
2014-07-13T03:09:51.943Z,100409
2014-07-13T03:10:10.178Z,100414
2014-07-13T03:10:27.772Z,100420
2014-07-13T03:10:45.382Z,100420
2014-07-13T03:11:02.991Z,100420
2014-07-13T03:11:21.229Z,100420
2014-07-13T03:11:39.463Z,100420
2014-07-13T03:11:57.697Z,100417
2014-07-13T03:12:15.291Z,100414
2014-07-13T03:12:31.637Z,100420
2014-07-13T03:12:49.871Z,100411
2014-07-13T03:13:07.481Z,100417
2014-07-13T03:13:25.217Z,100420
2014-07-13T03:13:43.451Z,100420
2014-07-13T03:14:01.061Z,100417
2014-07-13T03:14:19.295Z,100420
2014-07-13T03:14:36.266Z,100417
2014-07-13T03:14:53.250Z,100414
2014-07-13T03:15:10.860Z,100426
2014-07-13T03:15:29.095Z,100420
2014-07-13T03:15:46.704Z,100409
2014-07-13T03:16:04.298Z,100423
2014-07-13T03:16:21.907Z,100414
2014-07-13T03:16:40.145Z,100420
2014-07-13T03:16:57.114Z,100420
2014-07-13T03:17:14.723Z,100420
2014-07-13T03:17:32.959Z,100408
2014-07-13T03:17:51.194Z,100423
2014-07-13T03:18:08.787Z,100411
2014-07-13T03:18:26.397Z,100409
2014-07-13T03:18:43.382Z,100411
2014-07-13T03:19:00.976Z,100420
2014-07-13T03:19:18.585Z,100406
2014-07-13T03:19:35.557Z,100414
2014-07-13T03:19:53.166Z,100408
2014-07-13T03:20:10.776Z,100411
2014-07-13T03:20:27.745Z,100420
2014-07-13T03:20:44.731Z,100417
2014-07-13T03:21:02.965Z,100414
2014-07-13T03:21:21.200Z,100408
2014-07-13T03:21:38.794Z,100414
2014-07-13T03:21:55.904Z,100417
2014-07-13T03:22:14.138Z,100426
2014-07-13T03:22:31.748Z,100408
2014-07-13T03:22:49.359Z,100414
2014-07-13T03:23:06.953Z,100423
2014-07-13T03:23:24.562Z,100414
2014-07-13T03:23:42.798Z,100411
2014-07-13T03:24:00.408Z,100411
2014-07-13T03:24:18.002Z,100423
2014-07-13T03:24:36.238Z,100411
2014-07-13T03:24:53.847Z,100420
2014-07-13T03:25:12.082Z,100411
2014-07-13T03:25:29.675Z,100420
2014-07-13T03:25:47.287Z,100423
2014-07-13T03:26:04.271Z,100420
2014-07-13T03:26:21.881Z,100420
2014-07-13T03:26:39.476Z,100414
2014-07-13T03:26:57.711Z,100423
2014-07-13T03:27:15.945Z,100423
2014-07-13T03:27:34.181Z,100420
2014-07-13T03:27:50.541Z,100420
2014-07-13T03:28:08.775Z,100429
2014-07-13T03:28:27.010Z,100426
2014-07-13T03:28:44.621Z,100420
2014-07-13T03:29:01.590Z,100423
2014-07-13T03:29:19.965Z,100414
2014-07-13T03:29:38.201Z,100423
2014-07-13T03:29:55.185Z,100423
2014-07-13T03:30:12.795Z,100411
2014-07-13T03:30:30.404Z,100434
2014-07-13T03:30:48.641Z,100431
2014-07-13T03:31:06.875Z,100429
2014-07-13T03:31:24.484Z,100432
2014-07-13T03:31:42.079Z,100426
2014-07-13T03:32:00.313Z,100434
2014-07-13T03:32:17.298Z,100429
2014-07-13T03:32:34.269Z,100431
2014-07-13T03:32:52.503Z,100434
2014-07-13T03:33:10.112Z,100434
2014-07-13T03:33:28.347Z,100426
2014-07-13T03:33:46.583Z,100429
2014-07-13T03:34:04.817Z,100429
2014-07-13T03:34:22.427Z,100429
2014-07-13T03:34:40.023Z,100423
2014-07-13T03:34:58.398Z,100432
2014-07-13T03:35:16.632Z,100423
2014-07-13T03:35:34.868Z,100429
2014-07-13T03:35:52.478Z,100423
2014-07-13T03:36:09.446Z,100426
2014-07-13T03:36:27.056Z,100426
2014-07-13T03:36:44.667Z,100432
2014-07-13T03:37:02.902Z,100426
2014-07-13T03:37:20.495Z,100429
2014-07-13T03:37:38.107Z,100426
2014-07-13T03:37:56.341Z,100434
2014-07-13T03:38:13.950Z,100432
2014-07-13T03:38:31.544Z,100417
2014-07-13T03:38:49.156Z,100414
2014-07-13T03:39:05.515Z,100423
2014-07-13T03:39:23.749Z,100432
2014-07-13T03:39:41.361Z,100423
2014-07-13T03:39:59.595Z,100423
2014-07-13T03:40:17.829Z,100423
2014-07-13T03:40:36.066Z,100426
2014-07-13T03:40:53.660Z,100423
2014-07-13T03:41:11.269Z,100423
2014-07-13T03:41:28.863Z,100420
2014-07-13T03:41:46.474Z,100420
2014-07-13T03:42:02.833Z,100423
2014-07-13T03:42:21.068Z,100417